sensor_id;sensor_type;location;lat;lon;timestamp;temperature;humidity
22558;DHT22;11445;53.816;8.902;2022-08-23T00:01:04;19.80;99.90
22558;DHT22;11445;53.816;8.902;2022-08-23T00:03:32;19.80;99.90
22558;DHT22;11445;53.816;8.902;2022-08-23T00:06:01;19.80;99.90
22558;DHT22;11445;53.816;8.902;2022-08-23T00:08:28;19.80;99.90
22558;DHT22;11445;53.816;8.902;2022-08-23T00:10:56;19.80;99.90
22558;DHT22;11445;53.816;8.902;2022-08-23T00:13:24;19.80;99.90
22558;DHT22;11445;53.816;8.902;2022-08-23T00:15:51;19.80;99.90
22558;DHT22;11445;53.816;8.902;2022-08-23T00:18:18;19.70;99.90
22558;DHT22;11445;53.816;8.902;2022-08-23T00:20:45;19.70;99.90
22558;DHT22;11445;53.816;8.902;2022-08-23T00:23:14;19.70;99.90
22558;DHT22;11445;53.816;8.902;2022-08-23T00:25:41;19.70;99.90
22558;DHT22;11445;53.816;8.902;2022-08-23T00:28:08;19.70;99.90
22558;DHT22;11445;53.816;8.902;2022-08-23T00:30:36;19.70;99.90
22558;DHT22;11445;53.816;8.902;2022-08-23T00:33:03;19.70;99.90
22558;DHT22;11445;53.816;8.902;2022-08-23T00:35:30;19.60;99.90
22558;DHT22;11445;53.816;8.902;2022-08-23T00:37:57;19.60;99.90
22558;DHT22;11445;53.816;8.902;2022-08-23T00:40:26;19.60;99.90
22558;DHT22;11445;53.816;8.902;2022-08-23T00:43:03;19.60;99.90
22558;DHT22;11445;53.816;8.902;2022-08-23T00:45:53;19.60;99.90
22558;DHT22;11445;53.816;8.902;2022-08-23T00:48:41;19.50;99.90
22558;DHT22;11445;53.816;8.902;2022-08-23T00:51:12;19.50;99.90
22558;DHT22;11445;53.816;8.902;2022-08-23T00:53:43;19.50;99.90
22558;DHT22;11445;53.816;8.902;2022-08-23T00:56:14;19.50;99.90
22558;DHT22;11445;53.816;8.902;2022-08-23T00:58:43;19.50;99.90
22558;DHT22;11445;53.816;8.902;2022-08-23T01:01:11;19.50;99.90
22558;DHT22;11445;53.816;8.902;2022-08-23T01:03:41;19.50;99.90
22558;DHT22;11445;53.816;8.902;2022-08-23T01:06:12;19.50;99.90
22558;DHT22;11445;53.816;8.902;2022-08-23T01:08:42;19.50;99.90
22558;DHT22;11445;53.816;8.902;2022-08-23T01:11:16;19.50;99.90
22558;DHT22;11445;53.816;8.902;2022-08-23T01:13:47;19.50;99.90
22558;DHT22;11445;53.816;8.902;2022-08-23T01:16:18;19.50;99.90
22558;DHT22;11445;53.816;8.902;2022-08-23T01:18:47;19.50;99.90
22558;DHT22;11445;53.816;8.902;2022-08-23T01:21:20;19.50;99.90
22558;DHT22;11445;53.816;8.902;2022-08-23T01:23:53;19.50;99.90
22558;DHT22;11445;53.816;8.902;2022-08-23T01:26:23;19.50;99.90
22558;DHT22;11445;53.816;8.902;2022-08-23T01:28:51;19.50;99.90
22558;DHT22;11445;53.816;8.902;2022-08-23T01:31:19;19.50;99.90
22558;DHT22;11445;53.816;8.902;2022-08-23T01:33:50;19.50;99.90
22558;DHT22;11445;53.816;8.902;2022-08-23T01:36:19;19.50;99.90
22558;DHT22;11445;53.816;8.902;2022-08-23T01:38:46;19.50;99.90
22558;DHT22;11445;53.816;8.902;2022-08-23T01:41:15;19.50;99.90
22558;DHT22;11445;53.816;8.902;2022-08-23T01:43:42;19.50;99.90
22558;DHT22;11445;53.816;8.902;2022-08-23T01:46:11;19.50;99.90
22558;DHT22;11445;53.816;8.902;2022-08-23T01:48:39;19.50;99.90
22558;DHT22;11445;53.816;8.902;2022-08-23T01:51:06;19.50;99.90
22558;DHT22;11445;53.816;8.902;2022-08-23T01:53:34;19.50;99.90
22558;DHT22;11445;53.816;8.902;2022-08-23T01:56:01;19.50;99.90
22558;DHT22;11445;53.816;8.902;2022-08-23T01:58:30;19.50;99.90
22558;DHT22;11445;53.816;8.902;2022-08-23T02:00:57;19.50;99.90
22558;DHT22;11445;53.816;8.902;2022-08-23T02:03:27;19.50;99.90
22558;DHT22;11445;53.816;8.902;2022-08-23T02:05:54;19.50;99.90
22558;DHT22;11445;53.816;8.902;2022-08-23T02:08:21;19.50;99.90
22558;DHT22;11445;53.816;8.902;2022-08-23T02:11:10;19.50;99.90
22558;DHT22;11445;53.816;8.902;2022-08-23T02:13:39;19.50;99.90
22558;DHT22;11445;53.816;8.902;2022-08-23T02:16:06;19.50;99.90
22558;DHT22;11445;53.816;8.902;2022-08-23T02:18:33;19.50;99.90
22558;DHT22;11445;53.816;8.902;2022-08-23T02:21:01;19.50;99.90
22558;DHT22;11445;53.816;8.902;2022-08-23T02:23:28;19.40;99.90
22558;DHT22;11445;53.816;8.902;2022-08-23T02:25:55;19.40;99.90
22558;DHT22;11445;53.816;8.902;2022-08-23T02:28:23;19.40;99.90
22558;DHT22;11445;53.816;8.902;2022-08-23T02:30:51;19.40;99.90
22558;DHT22;11445;53.816;8.902;2022-08-23T02:33:19;19.40;99.90
22558;DHT22;11445;53.816;8.902;2022-08-23T02:35:47;19.30;99.90
22558;DHT22;11445;53.816;8.902;2022-08-23T02:38:14;19.30;99.90
22558;DHT22;11445;53.816;8.902;2022-08-23T02:40:41;19.30;99.90
22558;DHT22;11445;53.816;8.902;2022-08-23T02:43:09;19.30;99.90
22558;DHT22;11445;53.816;8.902;2022-08-23T02:45:37;19.30;99.90
22558;DHT22;11445;53.816;8.902;2022-08-23T02:48:06;19.30;99.90
22558;DHT22;11445;53.816;8.902;2022-08-23T02:50:33;19.30;99.90
22558;DHT22;11445;53.816;8.902;2022-08-23T02:53:01;19.20;99.90
22558;DHT22;11445;53.816;8.902;2022-08-23T02:55:28;19.20;99.90
22558;DHT22;11445;53.816;8.902;2022-08-23T02:57:55;19.20;99.90
22558;DHT22;11445;53.816;8.902;2022-08-23T03:00:23;19.20;99.90
22558;DHT22;11445;53.816;8.902;2022-08-23T03:02:51;19.20;99.90
22558;DHT22;11445;53.816;8.902;2022-08-23T03:05:19;19.20;99.90
22558;DHT22;11445;53.816;8.902;2022-08-23T03:07:46;19.10;99.90
22558;DHT22;11445;53.816;8.902;2022-08-23T03:10:14;19.10;99.90
22558;DHT22;11445;53.816;8.902;2022-08-23T03:12:42;19.10;99.90
22558;DHT22;11445;53.816;8.902;2022-08-23T03:15:10;19.10;99.90
22558;DHT22;11445;53.816;8.902;2022-08-23T03:17:37;19.10;99.90
22558;DHT22;11445;53.816;8.902;2022-08-23T03:20:05;19.10;99.90
22558;DHT22;11445;53.816;8.902;2022-08-23T03:22:34;19.10;99.90
22558;DHT22;11445;53.816;8.902;2022-08-23T03:25:03;19.10;99.90
22558;DHT22;11445;53.816;8.902;2022-08-23T03:27:30;19.10;99.90
22558;DHT22;11445;53.816;8.902;2022-08-23T03:29:57;19.10;99.90
22558;DHT22;11445;53.816;8.902;2022-08-23T03:32:25;19.10;99.90
22558;DHT22;11445;53.816;8.902;2022-08-23T03:34:52;19.10;99.90
22558;DHT22;11445;53.816;8.902;2022-08-23T03:37:20;19.10;99.90
22558;DHT22;11445;53.816;8.902;2022-08-23T03:39:48;19.10;99.90
22558;DHT22;11445;53.816;8.902;2022-08-23T03:42:16;19.10;99.90
22558;DHT22;11445;53.816;8.902;2022-08-23T03:44:43;19.10;99.90
22558;DHT22;11445;53.816;8.902;2022-08-23T03:47:10;19.10;99.90
22558;DHT22;11445;53.816;8.902;2022-08-23T03:49:38;19.00;99.90
22558;DHT22;11445;53.816;8.902;2022-08-23T03:52:05;19.00;99.90
22558;DHT22;11445;53.816;8.902;2022-08-23T03:54:32;19.00;99.90
22558;DHT22;11445;53.816;8.902;2022-08-23T03:57:04;19.00;99.90
22558;DHT22;11445;53.816;8.902;2022-08-23T03:59:32;18.90;99.90
22558;DHT22;11445;53.816;8.902;2022-08-23T04:02:00;18.90;99.90
22558;DHT22;11445;53.816;8.902;2022-08-23T04:04:27;18.90;99.90
22558;DHT22;11445;53.816;8.902;2022-08-23T04:06:54;18.80;99.90
22558;DHT22;11445;53.816;8.902;2022-08-23T04:09:21;18.80;99.90
22558;DHT22;11445;53.816;8.902;2022-08-23T04:11:48;18.80;99.90
22558;DHT22;11445;53.816;8.902;2022-08-23T04:14:18;18.70;99.90
22558;DHT22;11445;53.816;8.902;2022-08-23T04:16:45;18.70;99.90
22558;DHT22;11445;53.816;8.902;2022-08-23T04:19:13;18.60;99.90
22558;DHT22;11445;53.816;8.902;2022-08-23T04:21:44;18.60;99.90
22558;DHT22;11445;53.816;8.902;2022-08-23T04:24:13;18.60;99.90
22558;DHT22;11445;53.816;8.902;2022-08-23T04:26:40;18.50;99.90
22558;DHT22;11445;53.816;8.902;2022-08-23T04:29:07;18.50;99.90
22558;DHT22;11445;53.816;8.902;2022-08-23T04:31:38;18.50;99.90
22558;DHT22;11445;53.816;8.902;2022-08-23T04:34:05;18.50;99.90
22558;DHT22;11445;53.816;8.902;2022-08-23T04:36:34;18.50;99.90
22558;DHT22;11445;53.816;8.902;2022-08-23T04:39:03;18.40;99.90
22558;DHT22;11445;53.816;8.902;2022-08-23T04:41:30;18.40;99.90
22558;DHT22;11445;53.816;8.902;2022-08-23T04:44:14;18.40;99.90
22558;DHT22;11445;53.816;8.902;2022-08-23T04:46:43;18.40;99.90
22558;DHT22;11445;53.816;8.902;2022-08-23T04:49:10;18.40;99.90
22558;DHT22;11445;53.816;8.902;2022-08-23T04:51:37;18.50;99.90
22558;DHT22;11445;53.816;8.902;2022-08-23T04:54:04;18.50;99.90
22558;DHT22;11445;53.816;8.902;2022-08-23T04:56:32;18.50;99.90
22558;DHT22;11445;53.816;8.902;2022-08-23T04:58:59;18.50;99.90
22558;DHT22;11445;53.816;8.902;2022-08-23T05:01:27;18.50;99.90
22558;DHT22;11445;53.816;8.902;2022-08-23T05:03:56;18.50;99.90
22558;DHT22;11445;53.816;8.902;2022-08-23T05:06:23;18.60;99.90
22558;DHT22;11445;53.816;8.902;2022-08-23T05:08:50;18.50;99.90
22558;DHT22;11445;53.816;8.902;2022-08-23T05:11:17;18.50;99.90
22558;DHT22;11445;53.816;8.902;2022-08-23T05:13:45;18.50;99.90
22558;DHT22;11445;53.816;8.902;2022-08-23T05:16:12;18.50;99.90
22558;DHT22;11445;53.816;8.902;2022-08-23T05:18:39;18.60;99.90
22558;DHT22;11445;53.816;8.902;2022-08-23T05:21:13;18.60;99.90
22558;DHT22;11445;53.816;8.902;2022-08-23T05:23:40;18.60;99.90
22558;DHT22;11445;53.816;8.902;2022-08-23T05:26:07;18.60;99.90
22558;DHT22;11445;53.816;8.902;2022-08-23T05:28:35;18.60;99.90
22558;DHT22;11445;53.816;8.902;2022-08-23T05:31:07;18.70;99.90
22558;DHT22;11445;53.816;8.902;2022-08-23T05:33:35;18.70;99.90
22558;DHT22;11445;53.816;8.902;2022-08-23T05:36:04;18.70;99.90
22558;DHT22;11445;53.816;8.902;2022-08-23T05:38:32;18.70;99.90
22558;DHT22;11445;53.816;8.902;2022-08-23T05:41:00;18.80;99.90
22558;DHT22;11445;53.816;8.902;2022-08-23T05:43:28;18.80;99.90
22558;DHT22;11445;53.816;8.902;2022-08-23T05:46:00;18.80;99.90
22558;DHT22;11445;53.816;8.902;2022-08-23T05:48:29;18.80;99.90
22558;DHT22;11445;53.816;8.902;2022-08-23T05:50:56;18.80;99.90
22558;DHT22;11445;53.816;8.902;2022-08-23T05:53:23;18.80;99.90
22558;DHT22;11445;53.816;8.902;2022-08-23T05:55:51;18.80;99.90
22558;DHT22;11445;53.816;8.902;2022-08-23T05:58:18;18.80;99.90
22558;DHT22;11445;53.816;8.902;2022-08-23T06:00:46;18.90;99.90
22558;DHT22;11445;53.816;8.902;2022-08-23T06:03:13;18.90;99.90
22558;DHT22;11445;53.816;8.902;2022-08-23T06:05:40;18.90;99.90
22558;DHT22;11445;53.816;8.902;2022-08-23T06:08:07;19.00;99.90
22558;DHT22;11445;53.816;8.902;2022-08-23T06:10:35;19.00;99.90
22558;DHT22;11445;53.816;8.902;2022-08-23T06:13:04;19.00;99.90
22558;DHT22;11445;53.816;8.902;2022-08-23T06:15:31;19.00;99.90
22558;DHT22;11445;53.816;8.902;2022-08-23T06:17:58;19.00;99.90
22558;DHT22;11445;53.816;8.902;2022-08-23T06:20:25;19.00;99.90
22558;DHT22;11445;53.816;8.902;2022-08-23T06:22:52;19.10;99.90
22558;DHT22;11445;53.816;8.902;2022-08-23T06:25:19;19.10;99.90
22558;DHT22;11445;53.816;8.902;2022-08-23T06:27:46;19.10;99.90
22558;DHT22;11445;53.816;8.902;2022-08-23T06:30:14;19.20;99.90
22558;DHT22;11445;53.816;8.902;2022-08-23T06:32:41;19.20;99.90
22558;DHT22;11445;53.816;8.902;2022-08-23T06:35:08;19.30;99.90
22558;DHT22;11445;53.816;8.902;2022-08-23T06:37:36;19.40;99.90
22558;DHT22;11445;53.816;8.902;2022-08-23T06:40:04;19.40;99.90
22558;DHT22;11445;53.816;8.902;2022-08-23T06:42:31;19.50;99.90
22558;DHT22;11445;53.816;8.902;2022-08-23T06:44:58;19.60;99.90
22558;DHT22;11445;53.816;8.902;2022-08-23T06:47:27;19.60;99.90
22558;DHT22;11445;53.816;8.902;2022-08-23T06:49:56;19.70;99.90
22558;DHT22;11445;53.816;8.902;2022-08-23T06:52:23;19.70;99.90
22558;DHT22;11445;53.816;8.902;2022-08-23T06:54:51;19.70;99.90
22558;DHT22;11445;53.816;8.902;2022-08-23T06:57:19;19.70;99.90
22558;DHT22;11445;53.816;8.902;2022-08-23T06:59:47;19.80;99.90
22558;DHT22;11445;53.816;8.902;2022-08-23T07:02:14;19.90;99.90
22558;DHT22;11445;53.816;8.902;2022-08-23T07:04:42;20.00;99.90
22558;DHT22;11445;53.816;8.902;2022-08-23T07:07:10;20.10;99.90
22558;DHT22;11445;53.816;8.902;2022-08-23T07:09:38;20.20;99.90
22558;DHT22;11445;53.816;8.902;2022-08-23T07:12:06;20.20;99.90
22558;DHT22;11445;53.816;8.902;2022-08-23T07:14:33;20.30;99.90
22558;DHT22;11445;53.816;8.902;2022-08-23T07:17:02;20.30;99.90
22558;DHT22;11445;53.816;8.902;2022-08-23T07:19:32;20.40;99.90
22558;DHT22;11445;53.816;8.902;2022-08-23T07:22:02;20.40;99.90
22558;DHT22;11445;53.816;8.902;2022-08-23T07:24:30;20.50;99.90
22558;DHT22;11445;53.816;8.902;2022-08-23T07:26:57;20.60;99.90
22558;DHT22;11445;53.816;8.902;2022-08-23T07:29:26;20.70;99.90
22558;DHT22;11445;53.816;8.902;2022-08-23T07:31:54;20.90;99.90
22558;DHT22;11445;53.816;8.902;2022-08-23T07:34:23;21.00;99.90
22558;DHT22;11445;53.816;8.902;2022-08-23T07:36:51;21.10;99.90
22558;DHT22;11445;53.816;8.902;2022-08-23T07:39:22;21.10;99.90
22558;DHT22;11445;53.816;8.902;2022-08-23T07:41:51;21.10;99.90
22558;DHT22;11445;53.816;8.902;2022-08-23T07:44:18;21.20;99.90
22558;DHT22;11445;53.816;8.902;2022-08-23T07:46:46;21.30;99.90
22558;DHT22;11445;53.816;8.902;2022-08-23T07:49:14;21.40;99.90
22558;DHT22;11445;53.816;8.902;2022-08-23T07:51:45;21.50;99.90
22558;DHT22;11445;53.816;8.902;2022-08-23T07:54:13;21.60;99.90
22558;DHT22;11445;53.816;8.902;2022-08-23T07:56:41;21.60;99.90
22558;DHT22;11445;53.816;8.902;2022-08-23T07:59:09;21.70;99.90
22558;DHT22;11445;53.816;8.902;2022-08-23T08:01:37;21.90;99.90
22558;DHT22;11445;53.816;8.902;2022-08-23T08:04:05;22.00;99.90
22558;DHT22;11445;53.816;8.902;2022-08-23T08:06:34;22.10;99.90
22558;DHT22;11445;53.816;8.902;2022-08-23T08:09:03;22.20;99.90
22558;DHT22;11445;53.816;8.902;2022-08-23T08:11:32;22.20;99.90
22558;DHT22;11445;53.816;8.902;2022-08-23T08:14:02;22.40;99.90
22558;DHT22;11445;53.816;8.902;2022-08-23T08:16:32;22.50;99.90
22558;DHT22;11445;53.816;8.902;2022-08-23T08:19:01;22.70;99.90
22558;DHT22;11445;53.816;8.902;2022-08-23T08:21:29;22.80;99.90
22558;DHT22;11445;53.816;8.902;2022-08-23T08:23:56;22.80;99.90
22558;DHT22;11445;53.816;8.902;2022-08-23T08:26:24;22.80;99.90
22558;DHT22;11445;53.816;8.902;2022-08-23T08:28:53;22.80;99.90
22558;DHT22;11445;53.816;8.902;2022-08-23T08:31:23;22.70;99.90
22558;DHT22;11445;53.816;8.902;2022-08-23T08:33:50;22.70;99.90
22558;DHT22;11445;53.816;8.902;2022-08-23T08:36:32;22.80;99.90
22558;DHT22;11445;53.816;8.902;2022-08-23T08:39:01;22.80;99.90
22558;DHT22;11445;53.816;8.902;2022-08-23T08:41:45;23.00;99.90
22558;DHT22;11445;53.816;8.902;2022-08-23T08:44:31;23.10;99.90
22558;DHT22;11445;53.816;8.902;2022-08-23T08:47:06;23.20;99.90
22558;DHT22;11445;53.816;8.902;2022-08-23T08:49:37;23.30;99.90
22558;DHT22;11445;53.816;8.902;2022-08-23T08:52:13;23.40;99.90
22558;DHT22;11445;53.816;8.902;2022-08-23T08:54:42;23.60;99.90
22558;DHT22;11445;53.816;8.902;2022-08-23T08:57:13;23.80;99.90
22558;DHT22;11445;53.816;8.902;2022-08-23T08:59:47;24.00;99.90
22558;DHT22;11445;53.816;8.902;2022-08-23T09:02:21;24.10;99.90
22558;DHT22;11445;53.816;8.902;2022-08-23T09:04:48;24.10;99.90
22558;DHT22;11445;53.816;8.902;2022-08-23T09:07:26;24.10;99.90
22558;DHT22;11445;53.816;8.902;2022-08-23T09:10:10;24.20;99.90
22558;DHT22;11445;53.816;8.902;2022-08-23T09:12:48;24.20;99.90
22558;DHT22;11445;53.816;8.902;2022-08-23T09:15:25;24.40;99.90
22558;DHT22;11445;53.816;8.902;2022-08-23T09:18:00;24.40;99.90
22558;DHT22;11445;53.816;8.902;2022-08-23T09:20:29;24.50;99.90
22558;DHT22;11445;53.816;8.902;2022-08-23T09:23:03;24.60;99.90
22558;DHT22;11445;53.816;8.902;2022-08-23T09:25:31;24.70;99.90
22558;DHT22;11445;53.816;8.902;2022-08-23T09:27:59;24.80;99.90
22558;DHT22;11445;53.816;8.902;2022-08-23T09:30:46;24.90;99.90
22558;DHT22;11445;53.816;8.902;2022-08-23T09:33:16;24.90;99.90
22558;DHT22;11445;53.816;8.902;2022-08-23T09:36:02;25.00;99.90
22558;DHT22;11445;53.816;8.902;2022-08-23T09:38:30;25.10;99.90
22558;DHT22;11445;53.816;8.902;2022-08-23T09:40:58;25.10;99.90
22558;DHT22;11445;53.816;8.902;2022-08-23T09:43:27;25.20;99.90
22558;DHT22;11445;53.816;8.902;2022-08-23T09:45:59;25.30;99.90
22558;DHT22;11445;53.816;8.902;2022-08-23T09:48:46;25.40;99.90
22558;DHT22;11445;53.816;8.902;2022-08-23T09:51:17;25.40;99.90
22558;DHT22;11445;53.816;8.902;2022-08-23T09:53:48;25.50;99.90
22558;DHT22;11445;53.816;8.902;2022-08-23T09:56:21;25.50;99.90
22558;DHT22;11445;53.816;8.902;2022-08-23T09:58:49;25.60;99.90
22558;DHT22;11445;53.816;8.902;2022-08-23T10:01:21;25.70;99.90
22558;DHT22;11445;53.816;8.902;2022-08-23T10:04:09;25.80;99.90
22558;DHT22;11445;53.816;8.902;2022-08-23T10:06:37;25.90;99.90
22558;DHT22;11445;53.816;8.902;2022-08-23T10:09:06;25.90;99.90
22558;DHT22;11445;53.816;8.902;2022-08-23T10:11:38;26.00;99.90
22558;DHT22;11445;53.816;8.902;2022-08-23T10:14:06;26.00;99.90
22558;DHT22;11445;53.816;8.902;2022-08-23T10:16:40;26.00;99.90
22558;DHT22;11445;53.816;8.902;2022-08-23T10:19:17;26.00;99.90
22558;DHT22;11445;53.816;8.902;2022-08-23T10:21:52;26.10;99.90
22558;DHT22;11445;53.816;8.902;2022-08-23T10:24:28;26.10;99.90
22558;DHT22;11445;53.816;8.902;2022-08-23T10:27:14;26.20;99.90
22558;DHT22;11445;53.816;8.902;2022-08-23T10:30:06;26.30;99.90
22558;DHT22;11445;53.816;8.902;2022-08-23T10:32:46;26.40;99.90
22558;DHT22;11445;53.816;8.902;2022-08-23T10:35:30;26.40;99.90
22558;DHT22;11445;53.816;8.902;2022-08-23T10:38:10;26.40;99.90
22558;DHT22;11445;53.816;8.902;2022-08-23T10:40:47;26.50;99.90
22558;DHT22;11445;53.816;8.902;2022-08-23T10:43:22;26.50;99.90
22558;DHT22;11445;53.816;8.902;2022-08-23T10:45:52;26.60;99.90
22558;DHT22;11445;53.816;8.902;2022-08-23T10:48:25;26.70;99.90
22558;DHT22;11445;53.816;8.902;2022-08-23T10:50:58;26.70;99.90
22558;DHT22;11445;53.816;8.902;2022-08-23T10:53:34;26.80;99.90
22558;DHT22;11445;53.816;8.902;2022-08-23T10:56:03;26.80;99.90
22558;DHT22;11445;53.816;8.902;2022-08-23T10:58:38;26.80;99.90
22558;DHT22;11445;53.816;8.902;2022-08-23T11:01:07;26.90;99.90
22558;DHT22;11445;53.816;8.902;2022-08-23T11:03:42;26.90;99.90
22558;DHT22;11445;53.816;8.902;2022-08-23T11:06:37;27.00;99.90
22558;DHT22;11445;53.816;8.902;2022-08-23T11:09:08;27.10;99.90
22558;DHT22;11445;53.816;8.902;2022-08-23T11:11:41;27.10;99.90
22558;DHT22;11445;53.816;8.902;2022-08-23T11:14:11;27.20;99.90
22558;DHT22;11445;53.816;8.902;2022-08-23T11:16:41;27.30;99.90
22558;DHT22;11445;53.816;8.902;2022-08-23T11:19:13;27.30;99.90
22558;DHT22;11445;53.816;8.902;2022-08-23T11:21:50;27.40;99.90
22558;DHT22;11445;53.816;8.902;2022-08-23T11:24:53;27.40;99.90
22558;DHT22;11445;53.816;8.902;2022-08-23T11:27:29;27.50;99.90
22558;DHT22;11445;53.816;8.902;2022-08-23T11:29:57;27.50;99.90
22558;DHT22;11445;53.816;8.902;2022-08-23T11:32:39;27.50;99.90
22558;DHT22;11445;53.816;8.902;2022-08-23T11:35:32;27.50;99.90
22558;DHT22;11445;53.816;8.902;2022-08-23T11:38:04;27.50;99.90
22558;DHT22;11445;53.816;8.902;2022-08-23T11:40:56;27.60;99.90
22558;DHT22;11445;53.816;8.902;2022-08-23T11:43:28;27.60;99.90
22558;DHT22;11445;53.816;8.902;2022-08-23T11:46:15;27.60;99.90
22558;DHT22;11445;53.816;8.902;2022-08-23T11:48:46;27.70;99.90
22558;DHT22;11445;53.816;8.902;2022-08-23T11:51:22;27.70;99.90
22558;DHT22;11445;53.816;8.902;2022-08-23T11:54:29;27.80;99.90
22558;DHT22;11445;53.816;8.902;2022-08-23T11:57:10;27.80;99.90
22558;DHT22;11445;53.816;8.902;2022-08-23T12:00:05;27.80;99.90
22558;DHT22;11445;53.816;8.902;2022-08-23T12:05:41;27.90;99.90
22558;DHT22;11445;53.816;8.902;2022-08-23T12:08:32;28.00;99.90
22558;DHT22;11445;53.816;8.902;2022-08-23T12:11:10;28.10;99.90
22558;DHT22;11445;53.816;8.902;2022-08-23T12:13:57;28.10;99.90
22558;DHT22;11445;53.816;8.902;2022-08-23T12:19:19;28.20;99.90
22558;DHT22;11445;53.816;8.902;2022-08-23T12:21:51;28.20;99.90
22558;DHT22;11445;53.816;8.902;2022-08-23T12:24:31;28.20;99.90
22558;DHT22;11445;53.816;8.902;2022-08-23T12:27:07;28.20;99.90
22558;DHT22;11445;53.816;8.902;2022-08-23T12:29:50;28.30;99.90
22558;DHT22;11445;53.816;8.902;2022-08-23T12:32:28;28.30;99.90
22558;DHT22;11445;53.816;8.902;2022-08-23T12:35:10;28.40;99.90
22558;DHT22;11445;53.816;8.902;2022-08-23T12:37:47;28.40;99.90
22558;DHT22;11445;53.816;8.902;2022-08-23T12:40:36;28.40;99.90
22558;DHT22;11445;53.816;8.902;2022-08-23T12:43:06;28.40;99.90
22558;DHT22;11445;53.816;8.902;2022-08-23T12:45:39;28.50;99.90
22558;DHT22;11445;53.816;8.902;2022-08-23T12:48:08;28.50;99.90
22558;DHT22;11445;53.816;8.902;2022-08-23T12:50:38;28.50;99.90
22558;DHT22;11445;53.816;8.902;2022-08-23T12:53:08;28.50;99.90
22558;DHT22;11445;53.816;8.902;2022-08-23T12:55:40;28.50;99.90
22558;DHT22;11445;53.816;8.902;2022-08-23T12:58:09;28.50;99.90
22558;DHT22;11445;53.816;8.902;2022-08-23T13:00:39;28.60;99.90
22558;DHT22;11445;53.816;8.902;2022-08-23T13:03:13;28.60;99.90
22558;DHT22;11445;53.816;8.902;2022-08-23T13:05:43;28.60;99.90
22558;DHT22;11445;53.816;8.902;2022-08-23T13:08:15;28.60;99.90
22558;DHT22;11445;53.816;8.902;2022-08-23T13:10:46;28.60;99.90
22558;DHT22;11445;53.816;8.902;2022-08-23T13:13:17;28.60;99.90
22558;DHT22;11445;53.816;8.902;2022-08-23T13:15:47;28.70;99.90
22558;DHT22;11445;53.816;8.902;2022-08-23T13:18:27;28.70;99.90
22558;DHT22;11445;53.816;8.902;2022-08-23T13:21:23;28.70;99.90
22558;DHT22;11445;53.816;8.902;2022-08-23T13:23:52;28.70;99.90
22558;DHT22;11445;53.816;8.902;2022-08-23T13:26:35;28.80;99.90
22558;DHT22;11445;53.816;8.902;2022-08-23T13:29:06;28.80;99.90
22558;DHT22;11445;53.816;8.902;2022-08-23T13:31:55;28.80;99.90
22558;DHT22;11445;53.816;8.902;2022-08-23T13:34:34;28.80;99.90
22558;DHT22;11445;53.816;8.902;2022-08-23T13:37:04;28.80;99.90
22558;DHT22;11445;53.816;8.902;2022-08-23T13:39:32;28.80;99.90
22558;DHT22;11445;53.816;8.902;2022-08-23T13:42:01;28.80;99.90
22558;DHT22;11445;53.816;8.902;2022-08-23T13:44:29;28.80;99.90
22558;DHT22;11445;53.816;8.902;2022-08-23T13:46:57;28.80;99.90
22558;DHT22;11445;53.816;8.902;2022-08-23T13:49:27;28.90;99.90
22558;DHT22;11445;53.816;8.902;2022-08-23T13:52:06;29.00;99.90
22558;DHT22;11445;53.816;8.902;2022-08-23T13:54:35;29.00;99.90
22558;DHT22;11445;53.816;8.902;2022-08-23T13:57:09;29.00;99.90
22558;DHT22;11445;53.816;8.902;2022-08-23T13:59:38;29.10;99.90
22558;DHT22;11445;53.816;8.902;2022-08-23T14:02:08;29.10;99.90
22558;DHT22;11445;53.816;8.902;2022-08-23T14:04:39;29.20;99.90
22558;DHT22;11445;53.816;8.902;2022-08-23T14:07:06;29.20;99.90
22558;DHT22;11445;53.816;8.902;2022-08-23T14:09:35;29.30;99.90
22558;DHT22;11445;53.816;8.902;2022-08-23T14:12:06;29.30;99.90
22558;DHT22;11445;53.816;8.902;2022-08-23T14:14:35;29.30;99.90
22558;DHT22;11445;53.816;8.902;2022-08-23T14:17:03;29.30;99.90
22558;DHT22;11445;53.816;8.902;2022-08-23T14:19:30;29.40;99.90
22558;DHT22;11445;53.816;8.902;2022-08-23T14:21:58;29.40;99.90
22558;DHT22;11445;53.816;8.902;2022-08-23T14:24:25;29.40;99.90
22558;DHT22;11445;53.816;8.902;2022-08-23T14:26:53;29.40;99.90
22558;DHT22;11445;53.816;8.902;2022-08-23T14:29:24;29.40;99.90
22558;DHT22;11445;53.816;8.902;2022-08-23T14:31:52;29.50;99.90
22558;DHT22;11445;53.816;8.902;2022-08-23T14:34:20;29.40;99.90
22558;DHT22;11445;53.816;8.902;2022-08-23T14:36:48;29.40;99.90
22558;DHT22;11445;53.816;8.902;2022-08-23T14:39:16;29.20;99.90
22558;DHT22;11445;53.816;8.902;2022-08-23T14:41:43;29.10;99.90
22558;DHT22;11445;53.816;8.902;2022-08-23T14:44:10;29.10;99.90
22558;DHT22;11445;53.816;8.902;2022-08-23T14:46:39;29.10;99.90
22558;DHT22;11445;53.816;8.902;2022-08-23T14:49:06;29.10;99.90
22558;DHT22;11445;53.816;8.902;2022-08-23T14:51:35;29.20;99.90
22558;DHT22;11445;53.816;8.902;2022-08-23T14:54:05;29.30;99.90
22558;DHT22;11445;53.816;8.902;2022-08-23T14:56:33;29.30;99.90
22558;DHT22;11445;53.816;8.902;2022-08-23T14:59:00;29.40;99.90
22558;DHT22;11445;53.816;8.902;2022-08-23T15:01:27;29.40;99.90
22558;DHT22;11445;53.816;8.902;2022-08-23T15:03:56;29.40;99.90
22558;DHT22;11445;53.816;8.902;2022-08-23T15:06:23;29.50;99.90
22558;DHT22;11445;53.816;8.902;2022-08-23T15:08:50;29.50;99.90
22558;DHT22;11445;53.816;8.902;2022-08-23T15:11:18;29.50;99.90
22558;DHT22;11445;53.816;8.902;2022-08-23T15:13:45;29.50;99.90
22558;DHT22;11445;53.816;8.902;2022-08-23T15:16:15;29.50;99.90
22558;DHT22;11445;53.816;8.902;2022-08-23T15:18:45;29.40;99.90
22558;DHT22;11445;53.816;8.902;2022-08-23T15:21:15;29.50;99.90
22558;DHT22;11445;53.816;8.902;2022-08-23T15:23:43;29.50;99.90
22558;DHT22;11445;53.816;8.902;2022-08-23T15:26:10;29.50;99.90
22558;DHT22;11445;53.816;8.902;2022-08-23T15:28:38;29.50;99.90
22558;DHT22;11445;53.816;8.902;2022-08-23T15:31:05;29.50;99.90
22558;DHT22;11445;53.816;8.902;2022-08-23T15:33:33;29.50;99.90
22558;DHT22;11445;53.816;8.902;2022-08-23T15:36:00;29.40;99.90
22558;DHT22;11445;53.816;8.902;2022-08-23T15:38:29;29.40;99.90
22558;DHT22;11445;53.816;8.902;2022-08-23T15:40:57;29.30;99.90
22558;DHT22;11445;53.816;8.902;2022-08-23T15:43:25;29.30;99.90
22558;DHT22;11445;53.816;8.902;2022-08-23T15:45:52;29.30;99.90
22558;DHT22;11445;53.816;8.902;2022-08-23T15:48:22;29.30;99.90
22558;DHT22;11445;53.816;8.902;2022-08-23T15:50:50;29.30;99.90
22558;DHT22;11445;53.816;8.902;2022-08-23T15:53:18;29.20;99.90
22558;DHT22;11445;53.816;8.902;2022-08-23T15:55:47;29.10;99.90
22558;DHT22;11445;53.816;8.902;2022-08-23T15:58:18;29.10;99.90